Douglas, North Dakota
Current Conditions -  °F | °C
As of 7:54 PM on Tuesday 21 Oct 2014 (Local Time) from KMOT Reporting Station
Clear Clear  
Wind Chill: 60°   Ceiling: Unl
Heat Index: 60°   Visibility: 10mi
Dew Point: 44°   Wind: 6mph
Humidity: 55%   Direction: 110°ESE
Pressure: 29.6"   Gusts: NA
Location:  47.86°N, 101.5°W
Report Text: KMOT 220054Z 11005KT 10SM CLR 16/07 A2960 RMK AO2 SLP029 T01560067
Loading
Personal Weather Stations






























Interactive Weather Map New forecast layout! Learn more

10-Day Weather Forecast

Advertisements
Track Severe Weather on mobile